createdAt,value
2022-09-11T00:03:42.962Z,0
2022-09-11T00:09:53.387Z,0
2022-09-11T00:16:04.144Z,0
2022-09-11T00:22:06.485Z,0
2022-09-11T00:28:17.194Z,0
2022-09-11T00:34:27.838Z,0
2022-09-11T00:40:38.521Z,0
2022-09-11T00:46:49.340Z,0
2022-09-11T00:52:02.093Z,0
2022-09-11T00:58:12.758Z,0
2022-09-11T01:04:23.418Z,0
2022-09-11T01:10:34.071Z,0
2022-09-11T01:16:44.750Z,0
2022-09-11T01:22:47.271Z,0
2022-09-11T01:30:12.131Z,0
2022-09-11T01:36:22.708Z,0
2022-09-11T01:42:33.394Z,0
2022-09-11T01:48:44.043Z,0
2022-09-11T01:54:54.708Z,0
2022-09-11T02:01:05.419Z,0
2022-09-11T02:07:16.034Z,0
2022-09-11T02:13:27.902Z,0
2022-09-11T02:19:37.398Z,0
2022-09-11T02:25:39.834Z,0
2022-09-11T02:31:50.532Z,0
2022-09-11T02:38:01.193Z,0
2022-09-11T02:44:11.831Z,0
2022-09-11T02:50:22.493Z,0
2022-09-11T02:56:33.186Z,0
2022-09-11T03:02:43.810Z,0
2022-09-11T03:08:54.501Z,0
2022-09-11T03:15:05.177Z,0
2022-09-11T03:21:24.041Z,0
2022-09-11T03:27:34.712Z,0
2022-09-11T03:33:45.386Z,0
2022-09-11T03:39:56.134Z,0
2022-09-11T03:46:06.761Z,0
2022-09-11T03:52:17.385Z,0
2022-09-11T03:58:28.133Z,0
2022-09-11T04:03:32.789Z,0
2022-09-11T04:09:43.462Z,0
2022-09-11T04:15:54.089Z,0
2022-09-11T04:21:56.584Z,0
2022-09-11T04:28:07.289Z,0
2022-09-11T04:34:17.949Z,0
2022-09-11T04:40:28.596Z,0
2022-09-11T04:46:39.243Z,0
2022-09-11T04:52:49.891Z,0
2022-09-11T04:59:00.560Z,0
2022-09-11T05:05:11.250Z,0
2022-09-11T05:11:21.894Z,0
2022-09-11T05:17:32.556Z,0
2022-09-11T05:24:49.204Z,0
2022-09-11T05:30:59.833Z,0
2022-09-11T05:37:10.506Z,0
2022-09-11T05:43:21.205Z,0
2022-09-11T05:48:34.102Z,0
2022-09-11T05:54:44.758Z,0
2022-09-11T06:00:55.462Z,0
2022-09-11T06:07:06.089Z,0
2022-09-11T06:13:16.771Z,0
2022-09-11T06:19:27.461Z,0
2022-09-11T06:25:29.929Z,0
2022-09-11T06:31:40.613Z,0
2022-09-11T06:37:51.279Z,0
2022-09-11T06:44:01.906Z,0
2022-09-11T06:50:12.553Z,0
2022-09-11T06:56:23.273Z,0
2022-09-11T07:02:33.911Z,0
2022-09-11T07:08:44.580Z,0
2022-09-11T07:14:55.258Z,0
2022-09-11T07:21:05.910Z,0
2022-09-11T07:27:08.389Z,0
2022-09-11T07:33:19.056Z,0
2022-09-11T07:39:29.730Z,0
2022-09-11T07:45:40.475Z,0
2022-09-11T07:51:51.078Z,0
2022-09-11T07:58:01.725Z,0
2022-09-11T08:04:12.388Z,0
2022-09-11T08:09:17.144Z,0
2022-09-11T08:15:27.789Z,0
2022-09-11T08:20:40.688Z,0
2022-09-11T08:26:48.124Z,0
2022-09-11T08:32:53.841Z,0
2022-09-11T08:39:04.522Z,0
2022-09-11T08:45:15.179Z,0
2022-09-11T08:51:25.845Z,0
2022-09-11T08:57:36.492Z,0
2022-09-11T09:03:47.205Z,0
2022-09-11T09:09:57.820Z,0
2022-09-11T09:16:08.561Z,0
2022-09-11T09:22:19.190Z,0
2022-09-11T09:28:21.637Z,0
2022-09-11T09:34:32.282Z,0.8
2022-09-11T09:40:43.002Z,2.6
2022-09-11T09:46:53.636Z,2.8
2022-09-11T09:53:04.306Z,2.6
2022-09-11T09:59:14.979Z,2.1
2022-09-11T10:05:25.643Z,1.9
2022-09-11T10:11:36.305Z,2.9
2022-09-11T10:17:47.051Z,3.3
2022-09-11T10:25:03.601Z,3.1
2022-09-11T10:31:14.279Z,3.9
2022-09-11T10:37:24.985Z,4.5
2022-09-11T10:43:35.566Z,4.2
2022-09-11T10:48:48.521Z,4.1
2022-09-11T10:54:59.224Z,4.2
2022-09-11T11:01:09.871Z,5
2022-09-11T11:07:20.505Z,6.5
2022-09-11T11:13:31.197Z,6.1
2022-09-11T11:19:41.862Z,5.6
2022-09-11T11:25:44.305Z,5.8
2022-09-11T11:31:54.989Z,6.3
2022-09-11T11:38:05.664Z,5.9
2022-09-11T11:44:16.360Z,5
2022-09-11T11:50:31.133Z,5.3
2022-09-11T11:56:37.646Z,5.5
2022-09-11T12:02:48.307Z,5.5
2022-09-11T12:08:59.013Z,6.5
2022-09-11T12:15:09.738Z,6.5
2022-09-11T12:20:14.392Z,6.3
2022-09-11T12:26:25.081Z,6.3
2022-09-11T12:32:27.542Z,6.9
2022-09-11T12:38:38.191Z,5.8
2022-09-11T12:44:48.892Z,6.4
2022-09-11T12:50:59.525Z,6
2022-09-11T12:57:10.211Z,5.6
2022-09-11T13:03:20.888Z,5.6
2022-09-11T13:09:31.565Z,5.8
2022-09-11T13:15:42.292Z,5.9
2022-09-11T13:22:09.301Z,6.4
2022-09-11T13:28:14.428Z,6.4
2022-09-11T13:34:22.416Z,6.7
2022-09-11T13:41:47.206Z,6.7
2022-09-11T13:47:57.876Z,6
2022-09-11T13:54:08.524Z,6
2022-09-11T14:00:19.225Z,5.8
2022-09-11T14:06:29.874Z,6.4
2022-09-11T14:12:40.546Z,6.6
2022-09-11T14:18:51.228Z,6.5
2022-09-11T14:25:01.874Z,6.4
2022-09-11T14:31:04.383Z,5.9
2022-09-11T14:37:15.017Z,6.1
2022-09-11T14:43:25.658Z,6.2
2022-09-11T14:49:36.348Z,6.5
2022-09-11T14:55:47.057Z,6
2022-09-11T15:03:11.959Z,6.2
2022-09-11T15:09:22.481Z,6.2
2022-09-11T15:15:33.202Z,6.8
2022-09-11T15:21:43.838Z,6.8
2022-09-11T15:27:46.306Z,6.8
2022-09-11T15:33:56.988Z,6.1
2022-09-11T15:40:07.648Z,6.5
2022-09-11T15:46:18.426Z,6.3
2022-09-11T15:51:31.252Z,6.3
2022-09-11T15:57:41.866Z,7.2
2022-09-11T16:03:52.541Z,6.8
2022-09-11T16:10:03.229Z,5.9
2022-09-11T16:16:13.928Z,6.4
2022-09-11T16:22:24.560Z,5.8
2022-09-11T16:28:35.225Z,5.8
2022-09-11T16:34:45.904Z,5.9
2022-09-11T16:40:56.539Z,5.9
2022-09-11T16:47:07.261Z,5.5
2022-09-11T16:53:17.904Z,5.8
2022-09-11T16:59:28.564Z,4.8
2022-09-11T17:05:39.237Z,4.5
2022-09-11T17:11:49.907Z,4.5
2022-09-11T17:18:00.567Z,4.5
2022-09-11T17:24:11.249Z,4.5
2022-09-11T17:30:13.714Z,3.9
2022-09-11T17:36:24.360Z,3.6
2022-09-11T17:42:35.046Z,3.2
2022-09-11T17:48:46.027Z,3.1
2022-09-11T17:54:56.378Z,2.9
2022-09-11T18:01:07.086Z,2.4
2022-09-11T18:07:17.708Z,2.3
2022-09-11T18:13:28.388Z,2.3
2022-09-11T18:18:41.396Z,2.1
2022-09-11T18:24:51.942Z,2
2022-09-11T18:32:10.081Z,1.8
2022-09-11T18:38:19.254Z,1.6
2022-09-11T18:44:29.897Z,1.3
2022-09-11T18:50:40.569Z,1.1
2022-09-11T18:56:51.243Z,1
2022-09-11T19:03:01.904Z,0.6
2022-09-11T19:09:12.572Z,0.5
2022-09-11T19:15:23.239Z,0.2
2022-09-11T19:21:33.890Z,0
2022-09-11T19:27:44.580Z,0
2022-09-11T19:33:47.056Z,0
2022-09-11T19:39:57.776Z,0.2
2022-09-11T19:47:22.510Z,0
2022-09-11T19:53:33.185Z,0
2022-09-11T19:59:43.830Z,0
2022-09-11T20:05:54.520Z,0
2022-09-11T20:12:05.220Z,0
2022-09-11T20:18:15.857Z,0
2022-09-11T20:24:26.501Z,0
2022-09-11T20:30:28.993Z,0
2022-09-11T20:35:33.716Z,0
2022-09-11T20:41:44.378Z,0
2022-09-11T20:48:11.480Z,0
2022-09-11T20:54:22.089Z,0
2022-09-11T21:00:32.862Z,0
2022-09-11T21:06:43.440Z,0
2022-09-11T21:12:54.083Z,0
2022-09-11T21:19:04.759Z,0
2022-09-11T21:25:15.452Z,0
2022-09-11T21:31:26.192Z,0
2022-09-11T21:37:28.561Z,0
2022-09-11T21:43:39.274Z,0
2022-09-11T21:49:49.906Z,0
2022-09-11T21:57:14.679Z,0
2022-09-11T22:03:25.369Z,0
2022-09-11T22:09:36.034Z,0
2022-09-11T22:15:46.698Z,0
2022-09-11T22:21:57.431Z,0
2022-09-11T22:28:08.025Z,0
2022-09-11T22:35:24.640Z,0
2022-09-11T22:41:35.329Z,0
2022-09-11T22:47:45.981Z,0
2022-09-11T22:53:56.634Z,0
2022-09-11T23:00:07.315Z,0
2022-09-11T23:06:17.962Z,0
2022-09-11T23:12:28.642Z,0
2022-09-11T23:17:41.582Z,0
2022-09-11T23:23:54.558Z,0
2022-09-11T23:30:02.871Z,0
2022-09-11T23:36:05.415Z,0
2022-09-11T23:42:16.029Z,0
2022-09-11T23:48:26.714Z,0
2022-09-11T23:54:37.395Z,0
